createdAt,value
2019-02-14T00:01:47.401Z,18.12
2019-02-14T00:04:16.807Z,18.77
2019-02-14T00:06:46.197Z,18.67
2019-02-14T00:09:15.501Z,18.52
2019-02-14T00:11:44.897Z,18.62
2019-02-14T00:14:14.311Z,20.52
2019-02-14T00:16:43.729Z,20.80
2019-02-14T00:19:13.067Z,20.50
2019-02-14T00:21:42.378Z,20.95
2019-02-14T00:24:11.660Z,20.20
2019-02-14T00:26:40.942Z,20.27
2019-02-14T00:29:10.260Z,21.48
2019-02-14T00:31:39.648Z,20.50
2019-02-14T00:34:09.846Z,20.35
2019-02-14T00:36:39.125Z,19.82
2019-02-14T00:39:10.574Z,19.05
2019-02-14T00:41:39.855Z,19.30
2019-02-14T00:44:09.144Z,18.17
2019-02-14T00:46:38.422Z,18.92
2019-02-14T00:49:07.756Z,19.52
2019-02-14T00:51:37.042Z,18.48
2019-02-14T00:54:06.365Z,17.85
2019-02-14T00:56:35.710Z,17.62
2019-02-14T00:59:05.039Z,16.65
2019-02-14T01:01:34.358Z,16.57
2019-02-14T01:04:03.633Z,17.02
2019-02-14T01:06:32.924Z,16.45
2019-02-14T01:09:02.289Z,16.52
2019-02-14T01:11:31.565Z,16.17
2019-02-14T01:14:00.881Z,16.42
2019-02-14T01:16:30.653Z,16.93
2019-02-14T01:18:59.945Z,16.85
2019-02-14T01:21:29.344Z,17.15
2019-02-14T01:23:58.733Z,16.90
2019-02-14T01:26:28.032Z,17.42
2019-02-14T01:28:57.425Z,17.90
2019-02-14T01:31:26.699Z,18.10
2019-02-14T01:33:55.993Z,18.55
2019-02-14T01:36:25.295Z,18.55
2019-02-14T01:38:54.625Z,19.65
2019-02-14T01:41:23.879Z,18.95
2019-02-14T01:43:53.157Z,19.85
2019-02-14T01:46:22.457Z,19.95
2019-02-14T01:48:51.718Z,20.27
2019-02-14T01:51:21.015Z,20.57
2019-02-14T01:53:50.287Z,20.72
2019-02-14T01:56:19.571Z,20.35
2019-02-14T01:58:48.852Z,20.97
2019-02-14T02:01:18.153Z,20.23
2019-02-14T02:03:47.463Z,20.23
2019-02-14T02:06:16.767Z,19.70
2019-02-14T02:08:46.028Z,19.98
2019-02-14T02:11:15.358Z,20.00
2019-02-14T02:13:44.643Z,19.45
2019-02-14T02:16:13.982Z,20.32
2019-02-14T02:18:43.332Z,18.77
2019-02-14T02:21:12.614Z,20.20
2019-02-14T02:23:41.984Z,19.85
2019-02-14T02:26:11.281Z,18.90
2019-02-14T02:28:40.567Z,19.35
2019-02-14T02:31:09.882Z,18.95
2019-02-14T02:33:39.187Z,19.30
2019-02-14T02:36:08.451Z,19.30
2019-02-14T02:38:37.752Z,18.90
2019-02-14T02:41:06.996Z,19.57
2019-02-14T02:43:36.295Z,18.23
2019-02-14T02:46:05.563Z,18.85
2019-02-14T02:48:34.858Z,18.98
2019-02-14T02:51:04.239Z,18.90
2019-02-14T02:53:33.520Z,20.17
2019-02-14T02:56:02.781Z,19.50
2019-02-14T02:58:32.073Z,20.77
2019-02-14T03:01:01.454Z,19.10
2019-02-14T03:03:30.735Z,19.15
2019-02-14T03:06:00.019Z,19.07
2019-02-14T03:08:29.368Z,18.77
2019-02-14T03:10:58.699Z,18.80
2019-02-14T03:13:28.021Z,19.82
2019-02-14T03:15:57.295Z,19.82
2019-02-14T03:18:26.641Z,18.62
2019-02-14T03:20:55.895Z,19.25
2019-02-14T03:23:25.174Z,18.25
2019-02-14T03:25:54.467Z,19.55
2019-02-14T03:28:23.786Z,19.30
2019-02-14T03:30:53.049Z,18.40
2019-02-14T03:33:22.384Z,18.27
2019-02-14T03:35:51.658Z,19.12
2019-02-14T03:38:20.991Z,18.23
2019-02-14T03:40:50.280Z,17.77
2019-02-14T03:43:19.545Z,18.70
2019-02-14T03:45:48.896Z,18.85
2019-02-14T03:48:18.171Z,18.82
2019-02-14T03:50:47.477Z,19.32
2019-02-14T03:53:16.756Z,19.25
2019-02-14T03:55:46.161Z,19.70
2019-02-14T03:58:15.470Z,21.40
2019-02-14T04:00:44.755Z,21.25
2019-02-14T04:03:14.070Z,21.73
2019-02-14T04:05:43.434Z,22.75
2019-02-14T04:08:12.701Z,23.60
2019-02-14T04:14:35.208Z,24.43
2019-02-14T04:17:04.552Z,24.65
2019-02-14T04:19:33.879Z,26.35
2019-02-14T04:22:33.470Z,25.57
2019-02-14T04:25:02.820Z,24.90
2019-02-14T04:27:32.139Z,26.62
2019-02-14T04:30:01.434Z,25.55
2019-02-14T04:32:30.748Z,25.97
2019-02-14T04:35:00.362Z,25.12
2019-02-14T04:37:29.758Z,24.00
2019-02-14T04:39:59.114Z,24.77
2019-02-14T04:42:28.454Z,22.62
2019-02-14T04:44:57.767Z,23.92
2019-02-14T04:47:27.085Z,23.40
2019-02-14T04:49:56.382Z,22.82
2019-02-14T04:52:25.715Z,21.48
2019-02-14T04:54:55.110Z,22.70
2019-02-14T04:57:24.544Z,22.20
2019-02-14T04:59:53.885Z,22.20
2019-02-14T05:02:23.191Z,21.12
2019-02-14T05:04:52.476Z,21.20
2019-02-14T05:07:21.805Z,21.87
2019-02-14T05:09:51.104Z,21.60
2019-02-14T05:12:20.356Z,19.35
2019-02-14T05:14:49.646Z,20.57
2019-02-14T05:17:18.905Z,18.15
2019-02-14T05:19:48.172Z,20.02
2019-02-14T05:22:17.436Z,19.23
2019-02-14T05:24:46.770Z,18.57
2019-02-14T05:27:16.071Z,16.62
2019-02-14T05:29:45.357Z,18.32
2019-02-14T05:32:14.626Z,16.40
2019-02-14T05:34:43.947Z,16.27
2019-02-14T05:37:13.212Z,16.32
2019-02-14T05:39:42.504Z,16.97
2019-02-14T05:42:11.796Z,15.95
2019-02-14T05:44:41.098Z,16.55
2019-02-14T05:47:10.389Z,16.97
2019-02-14T05:49:39.698Z,17.10
2019-02-14T05:52:08.951Z,16.12
2019-02-14T05:54:38.231Z,16.27
2019-02-14T05:57:07.508Z,16.35
2019-02-14T05:59:41.366Z,16.17
2019-02-14T06:02:10.668Z,14.75
2019-02-14T06:04:39.950Z,25.75
2019-02-14T06:07:09.209Z,18.50
2019-02-14T06:09:38.560Z,16.70
2019-02-14T06:12:07.815Z,16.70
2019-02-14T06:14:37.081Z,17.82
2019-02-14T06:17:06.357Z,16.97
2019-02-14T06:19:35.615Z,16.12
2019-02-14T06:22:04.946Z,16.80
2019-02-14T06:24:34.227Z,16.57
2019-02-14T06:27:03.512Z,15.80
2019-02-14T06:29:32.801Z,16.85
2019-02-14T06:32:02.136Z,16.50
2019-02-14T06:34:31.428Z,16.95
2019-02-14T06:37:08.038Z,15.83
2019-02-14T06:39:31.824Z,15.98
2019-02-14T06:42:01.114Z,15.30
2019-02-14T06:44:30.368Z,15.05
2019-02-14T06:46:59.698Z,15.83
2019-02-14T06:49:29.013Z,15.55
2019-02-14T06:51:58.309Z,15.13
2019-02-14T06:54:27.589Z,16.60
2019-02-14T06:56:57.010Z,16.20
2019-02-14T06:59:26.291Z,15.40
2019-02-14T07:01:55.589Z,17.65
2019-02-14T07:04:24.868Z,15.98
2019-02-14T07:06:54.260Z,15.98
2019-02-14T07:09:25.656Z,14.75
2019-02-14T07:11:54.980Z,15.00
2019-02-14T07:14:24.249Z,14.45
2019-02-14T07:16:53.602Z,14.05
2019-02-14T07:19:22.911Z,13.68
2019-02-14T07:21:52.216Z,12.13
2019-02-14T07:24:21.476Z,11.78
2019-02-14T07:26:50.766Z,11.50
2019-02-14T07:29:20.099Z,11.40
2019-02-14T07:31:49.404Z,11.68
2019-02-14T07:34:18.676Z,10.58
2019-02-14T07:36:47.954Z,10.75
2019-02-14T07:39:17.279Z,10.32
2019-02-14T07:41:46.566Z,9.83
2019-02-14T07:44:15.875Z,10.75
2019-02-14T07:46:45.241Z,10.60
2019-02-14T07:49:14.525Z,10.25
2019-02-14T07:51:43.821Z,10.18
2019-02-14T07:54:13.183Z,10.25
2019-02-14T07:56:42.439Z,9.65
2019-02-14T07:59:11.778Z,9.70
2019-02-14T08:01:41.028Z,9.40
2019-02-14T08:04:10.329Z,9.78
2019-02-14T08:06:39.613Z,8.98
2019-02-14T08:09:08.975Z,8.48
2019-02-14T08:11:38.226Z,9.03
2019-02-14T08:14:07.518Z,8.98
2019-02-14T08:16:36.794Z,7.87
2019-02-14T08:19:06.091Z,7.97
2019-02-14T08:21:35.392Z,7.85
2019-02-14T08:24:04.668Z,8.18
2019-02-14T08:26:33.988Z,7.75
2019-02-14T08:29:33.387Z,7.85
2019-02-14T08:32:32.678Z,7.85
2019-02-14T08:35:32.160Z,7.83
2019-02-14T08:38:31.652Z,7.90
2019-02-14T08:41:31.087Z,7.75
2019-02-14T08:44:00.351Z,7.95
2019-02-14T08:46:32.399Z,7.65
2019-02-14T08:49:01.651Z,8.43
2019-02-14T08:51:33.794Z,8.30
2019-02-14T09:00:31.246Z,8.90
2019-02-14T09:05:47.789Z,8.85
2019-02-14T09:08:32.403Z,8.23
2019-02-14T09:11:01.661Z,8.35
2019-02-14T09:13:34.002Z,8.98
2019-02-14T09:16:30.475Z,8.45
2019-02-14T09:19:32.932Z,8.58
2019-02-14T09:22:32.367Z,8.83
2019-02-14T09:27:48.692Z,8.90
2019-02-14T09:30:30.106Z,8.70
2019-02-14T09:32:59.428Z,7.83
2019-02-14T09:35:28.703Z,8.58
2019-02-14T09:38:03.267Z,8.05
2019-02-14T09:40:29.025Z,8.25
2019-02-14T09:42:58.326Z,8.30
2019-02-14T09:45:27.635Z,8.65
2019-02-14T09:47:56.940Z,8.18
2019-02-14T09:50:26.258Z,8.00
2019-02-14T09:52:55.528Z,8.18
2019-02-14T09:55:24.816Z,8.07
2019-02-14T09:57:54.139Z,8.08
2019-02-14T10:00:23.420Z,8.75
2019-02-14T10:02:52.724Z,7.78
2019-02-14T10:05:22.045Z,8.23
2019-02-14T10:07:51.309Z,8.00
2019-02-14T10:10:20.664Z,7.90
2019-02-14T10:12:50.043Z,14.25
2019-02-14T10:15:19.383Z,19.90
2019-02-14T10:17:48.700Z,15.32
2019-02-14T10:20:17.980Z,13.77
2019-02-14T10:22:47.315Z,32.95
2019-02-14T10:25:16.618Z,24.20
2019-02-14T10:27:45.930Z,12.25
2019-02-14T10:30:18.815Z,49.43
2019-02-14T10:35:16.374Z,11.00
2019-02-14T10:37:45.761Z,9.33
2019-02-14T10:40:15.619Z,24.50
2019-02-14T10:42:44.973Z,36.33
2019-02-14T10:45:16.413Z,9.37
2019-02-14T10:47:45.740Z,43.50
2019-02-14T10:50:15.030Z,9.40
2019-02-14T10:52:44.346Z,8.83
2019-02-14T10:55:13.730Z,8.67
2019-02-14T10:57:43.021Z,11.40
2019-02-14T11:00:19.152Z,9.05
2019-02-14T11:02:49.487Z,10.20
2019-02-14T11:05:19.011Z,6.90
2019-02-14T11:07:48.317Z,8.65
2019-02-14T11:10:17.663Z,7.37
2019-02-14T11:12:46.952Z,6.50
2019-02-14T11:15:17.636Z,7.30
2019-02-14T11:17:48.942Z,7.08
2019-02-14T11:20:18.292Z,8.33
2019-02-14T11:22:48.966Z,6.92
2019-02-14T11:25:24.578Z,7.60
2019-02-14T11:27:53.843Z,11.53
2019-02-14T11:30:23.162Z,7.57
2019-02-14T11:32:52.455Z,9.95
2019-02-14T11:35:21.750Z,6.80
2019-02-14T11:37:51.104Z,7.17
2019-02-14T11:40:48.390Z,10.13
2019-02-14T11:43:17.750Z,8.10
2019-02-14T11:45:47.170Z,10.85
2019-02-14T11:48:16.506Z,8.90
2019-02-14T11:50:56.396Z,8.38
2019-02-14T11:53:25.742Z,8.18
2019-02-14T11:55:55.047Z,9.75
2019-02-14T11:58:24.460Z,10.30
2019-02-14T12:00:53.766Z,9.85
2019-02-14T12:03:23.072Z,10.63
2019-02-14T12:05:52.397Z,9.55
2019-02-14T12:08:21.776Z,9.10
2019-02-14T12:10:51.153Z,8.75
2019-02-14T12:13:20.447Z,9.48
2019-02-14T12:15:49.831Z,15.98
2019-02-14T12:18:19.119Z,10.30
2019-02-14T12:20:48.493Z,9.35
2019-02-14T12:23:17.813Z,6.78
2019-02-14T12:25:47.115Z,7.03
2019-02-14T12:28:16.411Z,6.70
2019-02-14T12:30:45.713Z,8.63
2019-02-14T12:33:15.010Z,10.50
2019-02-14T12:35:44.339Z,9.85
2019-02-14T12:38:13.653Z,9.60
2019-02-14T12:40:42.937Z,10.43
2019-02-14T12:43:12.308Z,9.95
2019-02-14T12:45:41.603Z,9.13
2019-02-14T12:48:11.019Z,8.83
2019-02-14T12:50:40.315Z,8.50
2019-02-14T12:53:09.616Z,8.20
2019-02-14T12:55:38.893Z,9.70
2019-02-14T12:58:08.176Z,10.65
2019-02-14T13:00:37.468Z,9.60
2019-02-14T13:03:06.764Z,9.05
2019-02-14T13:05:36.041Z,10.10
2019-02-14T13:08:05.427Z,34.65
2019-02-14T13:10:34.754Z,50.58
2019-02-14T13:13:04.112Z,14.75
2019-02-14T13:15:33.410Z,30.62
2019-02-14T13:18:02.744Z,81.28
2019-02-14T13:20:32.036Z,119.42
2019-02-14T13:23:01.343Z,31.25
2019-02-14T13:25:30.596Z,30.72
2019-02-14T13:27:59.921Z,42.05
2019-02-14T13:30:29.261Z,32.13
2019-02-14T13:32:58.582Z,17.50
2019-02-14T13:35:27.947Z,9.50
2019-02-14T13:37:57.301Z,27.70
2019-02-14T13:40:26.583Z,9.40
2019-02-14T13:42:56.659Z,5.30
2019-02-14T13:45:25.920Z,9.90
2019-02-14T13:47:55.272Z,13.85
2019-02-14T13:50:24.549Z,25.10
2019-02-14T13:52:53.826Z,23.18
2019-02-14T13:55:23.162Z,9.37
2019-02-14T13:57:52.509Z,7.87
2019-02-14T14:00:25.392Z,4.70
2019-02-14T14:02:54.711Z,4.10
2019-02-14T14:05:24.084Z,8.48
2019-02-14T14:07:53.396Z,9.33
2019-02-14T14:10:22.733Z,4.83
2019-02-14T14:12:52.082Z,4.22
2019-02-14T14:15:21.426Z,4.10
2019-02-14T14:17:50.705Z,3.37
2019-02-14T14:20:20.205Z,4.10
2019-02-14T14:22:49.492Z,7.53
2019-02-14T14:25:18.783Z,5.10
2019-02-14T14:27:48.165Z,4.58
2019-02-14T14:30:17.503Z,6.37
2019-02-14T14:32:46.873Z,8.58
2019-02-14T14:35:16.251Z,3.60
2019-02-14T14:37:45.505Z,6.30
2019-02-14T14:40:14.935Z,5.97
2019-02-14T14:43:05.966Z,6.58
2019-02-14T14:46:00.832Z,5.78
2019-02-14T14:48:37.741Z,7.87
2019-02-14T14:51:07.078Z,7.90
2019-02-14T14:53:36.334Z,7.67
2019-02-14T14:56:05.696Z,6.75
2019-02-14T14:58:34.977Z,6.80
2019-02-14T15:01:04.521Z,7.80
2019-02-14T15:03:33.927Z,7.22
2019-02-14T15:06:03.242Z,6.78
2019-02-14T15:08:32.519Z,6.67
2019-02-14T15:11:01.935Z,6.37
2019-02-14T15:13:31.266Z,6.78
2019-02-14T15:16:00.558Z,7.28
2019-02-14T15:18:29.933Z,6.05
2019-02-14T15:20:59.228Z,5.22
2019-02-14T15:23:28.524Z,6.30
2019-02-14T15:25:57.814Z,5.17
2019-02-14T15:28:27.147Z,5.58
2019-02-14T15:30:56.506Z,6.80
2019-02-14T15:33:34.761Z,7.00
2019-02-14T15:36:04.171Z,6.70
2019-02-14T15:38:34.554Z,7.50
2019-02-14T15:41:04.582Z,6.83
2019-02-14T15:43:34.087Z,7.42
2019-02-14T15:46:03.592Z,6.20
2019-02-14T15:48:32.919Z,5.75
2019-02-14T15:51:02.196Z,4.42
2019-02-14T15:53:31.559Z,4.85
2019-02-14T15:56:01.016Z,5.30
2019-02-14T15:58:31.103Z,4.00
2019-02-14T16:01:01.533Z,5.37
2019-02-14T16:03:30.876Z,16.42
2019-02-14T16:06:01.724Z,3.92
2019-02-14T16:08:31.253Z,15.10
2019-02-14T16:11:00.588Z,6.28
2019-02-14T16:13:31.727Z,3.30
2019-02-14T16:16:00.964Z,6.03
2019-02-14T16:18:30.298Z,5.12
2019-02-14T16:20:59.585Z,3.85
2019-02-14T16:23:30.160Z,4.15
2019-02-14T16:25:59.920Z,3.87
2019-02-14T16:28:29.250Z,4.70
2019-02-14T16:30:58.606Z,3.80
2019-02-14T16:33:27.932Z,4.65
2019-02-14T16:35:57.299Z,4.80
2019-02-14T16:38:26.586Z,4.58
2019-02-14T16:40:55.900Z,4.65
2019-02-14T16:43:25.231Z,5.20
2019-02-14T16:45:54.576Z,4.50
2019-02-14T16:48:23.920Z,4.87
2019-02-14T16:50:53.331Z,4.58
2019-02-14T16:53:22.662Z,4.90
2019-02-14T16:55:52.063Z,5.53
2019-02-14T16:58:24.991Z,5.37
2019-02-14T17:01:35.025Z,4.92
2019-02-14T17:07:23.489Z,5.53
2019-02-14T17:09:52.849Z,5.97
2019-02-14T17:15:54.099Z,7.53
2019-02-14T17:18:23.534Z,13.30
2019-02-14T17:20:52.913Z,11.30
2019-02-14T17:23:22.251Z,10.72
2019-02-14T17:25:51.685Z,10.75
2019-02-14T17:28:21.067Z,18.00
2019-02-14T17:30:50.417Z,18.75
2019-02-14T17:33:19.791Z,36.93
2019-02-14T17:35:49.177Z,14.68
2019-02-14T17:38:18.587Z,16.25
2019-02-14T17:40:47.929Z,13.43
2019-02-14T17:43:17.341Z,9.90
2019-02-14T17:45:46.688Z,11.55
2019-02-14T17:48:16.153Z,14.05
2019-02-14T17:50:45.468Z,11.57
2019-02-14T17:53:14.787Z,9.10
2019-02-14T17:55:44.160Z,9.60
2019-02-14T17:58:13.545Z,8.95
2019-02-14T18:00:42.955Z,8.03
2019-02-14T18:03:12.312Z,9.00
2019-02-14T18:05:41.700Z,11.77
2019-02-14T18:08:11.158Z,11.55
2019-02-14T18:10:40.531Z,13.95
2019-02-14T18:13:09.870Z,10.78
2019-02-14T18:15:39.186Z,11.30
2019-02-14T18:18:08.662Z,11.55
2019-02-14T18:20:38.072Z,12.50
2019-02-14T18:23:07.401Z,12.80
2019-02-14T18:25:36.845Z,11.38
2019-02-14T18:28:06.290Z,13.25
2019-02-14T18:30:35.658Z,13.98
2019-02-14T18:33:05.151Z,14.43
2019-02-14T18:35:34.543Z,16.07
2019-02-14T18:38:03.972Z,16.67
2019-02-14T18:40:33.451Z,19.42
2019-02-14T18:43:02.965Z,19.50
2019-02-14T18:45:32.270Z,19.50
2019-02-14T18:48:01.564Z,19.02
2019-02-14T18:50:31.049Z,18.70
2019-02-14T18:53:00.444Z,20.40
2019-02-14T18:55:29.802Z,23.02
2019-02-14T18:57:59.106Z,24.15
2019-02-14T19:00:28.648Z,20.25
2019-02-14T19:02:58.031Z,19.67
2019-02-14T19:05:27.384Z,18.98
2019-02-14T19:07:56.752Z,19.10
2019-02-14T19:10:26.175Z,21.13
2019-02-14T19:12:55.569Z,20.37
2019-02-14T19:15:24.947Z,19.30
2019-02-14T19:17:54.268Z,26.12
2019-02-14T19:20:23.633Z,22.43
2019-02-14T19:22:52.933Z,20.40
2019-02-14T19:25:22.371Z,21.10
2019-02-14T19:27:51.660Z,27.93
2019-02-14T19:30:21.043Z,25.50
2019-02-14T19:32:50.430Z,22.32
2019-02-14T19:35:23.076Z,22.57
2019-02-14T19:37:50.871Z,20.92
2019-02-14T19:40:20.202Z,22.53
2019-02-14T19:42:49.525Z,23.35
2019-02-14T19:45:18.883Z,24.87
2019-02-14T19:47:48.352Z,22.60
2019-02-14T19:50:17.766Z,21.63
2019-02-14T19:52:48.676Z,21.40
2019-02-14T19:55:18.032Z,21.00
2019-02-14T19:57:47.623Z,20.43
2019-02-14T20:00:17.141Z,19.10
2019-02-14T20:02:46.589Z,19.52
2019-02-14T20:05:15.981Z,19.13
2019-02-14T20:07:45.442Z,19.32
2019-02-14T20:10:15.615Z,18.87
2019-02-14T20:12:45.126Z,20.27
2019-02-14T20:15:15.479Z,21.15
2019-02-14T20:17:44.927Z,21.65
2019-02-14T20:20:14.349Z,21.63
2019-02-14T20:22:43.694Z,22.40
2019-02-14T20:25:14.306Z,23.97
2019-02-14T20:27:43.656Z,24.70
2019-02-14T20:30:13.089Z,24.33
2019-02-14T20:32:42.434Z,26.05
2019-02-14T20:35:11.918Z,25.12
2019-02-14T20:37:41.290Z,25.17
2019-02-14T20:40:10.688Z,26.02
2019-02-14T20:42:40.062Z,25.57
2019-02-14T20:45:10.225Z,26.65
2019-02-14T20:47:39.551Z,25.70
2019-02-14T20:50:10.558Z,26.73
2019-02-14T20:52:39.932Z,26.70
2019-02-14T20:55:11.439Z,25.45
2019-02-14T20:57:40.815Z,25.65
2019-02-14T21:00:20.414Z,26.00
2019-02-14T21:02:49.732Z,25.12
2019-02-14T21:05:19.096Z,25.70
2019-02-14T21:07:48.463Z,26.00
2019-02-14T21:10:17.871Z,26.80
2019-02-14T21:12:47.259Z,25.75
2019-02-14T21:15:16.657Z,26.33
2019-02-14T21:17:45.995Z,26.17
2019-02-14T21:20:15.414Z,25.45
2019-02-14T21:22:44.899Z,26.37
2019-02-14T21:25:15.113Z,26.67
2019-02-14T21:27:44.433Z,26.30
2019-02-14T21:30:14.660Z,27.17
2019-02-14T21:32:44.131Z,25.97
2019-02-14T21:35:13.556Z,27.55
2019-02-14T21:37:43.000Z,25.27
2019-02-14T21:40:13.074Z,26.57
2019-02-14T21:42:42.425Z,26.00
2019-02-14T21:45:12.837Z,25.15
2019-02-14T21:47:42.189Z,25.97
2019-02-14T21:50:11.854Z,26.12
2019-02-14T21:52:41.221Z,25.55
2019-02-14T21:55:10.925Z,27.73
2019-02-14T21:58:40.978Z,28.45
2019-02-14T22:01:11.939Z,28.23
2019-02-14T22:03:41.290Z,25.40
2019-02-14T22:06:10.614Z,26.95
2019-02-14T22:08:40.061Z,24.50
2019-02-14T22:11:09.437Z,24.20
2019-02-14T22:13:38.750Z,24.87
2019-02-14T22:16:08.115Z,23.35
2019-02-14T22:18:37.466Z,25.75
2019-02-14T22:21:06.806Z,25.88
2019-02-14T22:23:36.691Z,25.88
2019-02-14T22:26:06.126Z,24.35
2019-02-14T22:28:35.500Z,25.08
2019-02-14T22:31:04.804Z,25.70
2019-02-14T22:33:34.173Z,24.92
2019-02-14T22:36:03.495Z,25.50
2019-02-14T22:38:32.812Z,22.52
2019-02-14T22:41:02.244Z,21.87
2019-02-14T22:43:31.538Z,22.07
2019-02-14T22:46:00.865Z,19.80
2019-02-14T22:48:30.163Z,20.80
2019-02-14T22:50:59.495Z,18.67
2019-02-14T22:53:28.832Z,19.82
2019-02-14T22:55:58.067Z,20.43
2019-02-14T22:58:27.422Z,22.05
2019-02-14T23:00:59.929Z,21.85
2019-02-14T23:03:29.228Z,22.32
2019-02-14T23:05:58.563Z,20.92
2019-02-14T23:08:27.881Z,21.75
2019-02-14T23:10:57.258Z,17.42
2019-02-14T23:13:26.590Z,15.08
2019-02-14T23:15:55.952Z,14.53
2019-02-14T23:18:26.031Z,13.55
2019-02-14T23:20:55.365Z,13.13
2019-02-14T23:23:24.704Z,13.53
2019-02-14T23:25:53.986Z,12.93
2019-02-14T23:28:23.259Z,13.90
2019-02-14T23:30:52.606Z,12.07
2019-02-14T23:33:21.916Z,12.90
2019-02-14T23:35:51.192Z,12.25
2019-02-14T23:38:20.495Z,13.05
2019-02-14T23:40:49.833Z,12.03
2019-02-14T23:43:19.140Z,10.85
2019-02-14T23:45:48.509Z,11.30
2019-02-14T23:48:17.831Z,11.78
2019-02-14T23:50:47.198Z,11.10
2019-02-14T23:53:16.477Z,11.20
2019-02-14T23:55:45.809Z,11.53
2019-02-14T23:58:15.084Z,10.10
